x

New London Ledge Ct - Ledge Light Weather Station (ldlc3) Weather Station

10:55 - Sun 26th Apr 2015 All times are EDT. -4 hours from GMT.

  • Wind
    9mph, 13mph gusts
  • Air Temp 49°f
  • Sea Pressure 1004.1mb
  • New London Ledge Ct - Ledge Light Weather Station
  • New London Ledge Ct - Ledge Light Weather Station

More Historic Weather Station data

Upgrade to MSW Pro to gain access to the past 30 days of data for over 8000 Wavebouys and Weather Stations around the globe.

Join Pro

Comparision Forecast

View Surf forecast
   
dim. 04/26 10:55 9 13 mph 1004.1mb 49f
10:40 7 9 mph 1004.2mb 52f
10:25 9 13 mph 1004.3mb 52f
10:10 8 10 mph 1004.5mb 52f
9:55 6 7 mph 1004.7mb 51f
9:40 1 5 mph 1004.8mb 49f
9:25 3 6 mph 1004.8mb 48f
9:10 3 5 mph 1004.7mb 49f
8:55 6 7 mph 1004.6mb 48f
8:40 6
mph
1004.8mb 48f
8:25 7 8 mph 1004.8mb 46f
8:10 7 8 mph 1004.8mb 44f
7:55 7 8 mph 1004.8mb 44f
7:40 7 8 mph 1004.9mb 44f
7:25 7 8 mph 1005mb 44f
7:10 7 8 mph 1005.1mb 44f
6:55 7 8 mph 1005.1mb 44f
6:40 5 6 mph 1005mb 43f
6:25 6 7 mph 1004.9mb 42f
6:10 7 8 mph 1004.7mb 42f
5:55 6 7 mph 1004.7mb 42f
5:40 5 6 mph 1004.5mb 43f
5:25 3 5 mph 1004.2mb 44f
5:10 5
mph
1004.1mb 44f
4:55 5 6 mph 1004mb 44f
4:40 5 6 mph 1004.1mb 44f
4:25 6 7 mph 1004mb 44f
4:10 6 8 mph 1004mb 45f
3:55 6 7 mph 1004.1mb 45f
3:40 5 7 mph 1004.2mb 45f
3:25 6 7 mph 1004.2mb 45f
3:10 6 8 mph 1004.3mb 45f
2:55 6 7 mph 1004.1mb 46f
2:40 7 9 mph 1004.1mb 46f
2:25 6 9 mph 1004.3mb 46f
2:10 6 7 mph 1004.6mb 46f
1:55 5 7 mph 1004.7mb 46f
1:40 5 7 mph 1004.8mb 46f
1:25 5 6 mph 1004.8mb 47f
1:10 5 7 mph 1005mb 47f
sam. 04/25 7:55 15 17 mph 1004.8mb 47f
7:40 15 17 mph 1004.6mb 49f
7:25 17 22 mph 1004.3mb 48f
7:10 18 21 mph 1004.1mb 49f
6:55 15 18 mph 1004.2mb 48f
6:40 16 18 mph 1004.2mb 48f
6:25 20 23 mph 1003.8mb 48f
6:10 18 21 mph 1004.1mb 47f
5:55 18 20 mph 1004.2mb 47f
5:40 20 22 mph 1004mb 47f
5:25 20 22 mph 1004.1mb 47f
5:10 20 21 mph 1004.3mb 47f
4:55 21 22 mph 1004.2mb 47f
4:40 21 24 mph 1004.2mb 46f
4:25 18 23 mph 1004.2mb 46f
4:10 20 25 mph 1004.2mb 46f
3:55 21 24 mph 1004.3mb 46f
3:40 22 24 mph 1004.5mb 46f
3:25 20 23 mph 1005mb 46f
3:10 25 29 mph 1004.7mb 46f
2:55 25 29 mph 1004.9mb 46f
2:40 23 26 mph 1005.3mb 45f
2:25 24 29 mph 1005.4mb 45f
2:10 24 29 mph 1005.6mb 44f
1:55 23 25 mph 1005.7mb 45f
1:40 24 26 mph 1006mb 44f
1:25 25 29 mph 1006.2mb 44f
1:10 25 29 mph 1006.3mb 44f
12:55 25 30 mph 1006.5mb 43f
12:40 26 31 mph 1006.6mb 43f
12:10 26 30 mph 1006.8mb 43f
11:55 25 29 mph 1006.9mb 44f
11:40 20 22 mph 1007.5mb 46f
11:25 18 22 mph 1007.6mb 46f
11:10 15 17 mph 1008mb 46f
10:55 8 11 mph 1008.1mb 47f
10:40 11 15 mph 1008.1mb 46f
10:25 15 21 mph 1008.3mb 45f
10:10 13 20 mph 1008.5mb 45f
9:55 10 14 mph 1008.7mb 44f
9:40 15 20 mph 1008.6mb 43f
9:25 15 21 mph 1008.5mb 42f
9:10 16 21 mph 1008.7mb 41f
8:55 14 17 mph 1009mb 40f
8:40 14 20 mph 1009.3mb 40f
8:25 14 18 mph 1009.6mb 39f
8:10 15 21 mph 1009.4mb 38f
7:55 16 22 mph 1009.5mb 38f
7:40 15 18 mph 1009.6mb 37f
7:25 15 20 mph 1009.8mb 37f
7:10 16 20 mph 1009.8mb 36f
6:55 16 20 mph 1009.8mb 36f
6:40 16 18 mph 1009.9mb 36f
6:25 15 17 mph 1009.8mb 36f
6:10 17 20 mph 1009.5mb 36f
5:55 16 18 mph 1009.6mb 36f
5:40 17 20 mph 1009.4mb 37f
5:25 16 20 mph 1009.4mb 37f
5:10 16 18 mph 1009mb 37f
4:55 18 21 mph 1008.9mb 37f
4:40 18 22 mph 1008.9mb 37f
4:25 17 22 mph 1008.7mb 37f
4:10 15 16 mph 1008.8mb 37f
3:55 10 13 mph 1008.9mb 37f
3:40 9 11 mph 1009.2mb 37f
3:25 9 13 mph 1009.3mb 37f
3:10 11 15 mph 1009.5mb 37f
2:55 13 15 mph 1009.4mb 37f
2:40 11 15 mph 1009.4mb 37f
2:25 11 13 mph 1009.3mb 37f
2:10 9 11 mph 1009.5mb 37f
1:55 11 14 mph 1009.6mb 38f
1:40 10 13 mph 1009.6mb 37f
1:25 8 10 mph 1009.5mb 38f
1:10 11 15 mph 1009.6mb 38f
ven. 04/24 7:55 24 30 mph 1008.7mb 42f
7:40 23 32 mph 1008.7mb 42f
7:25 23 28 mph 1008.5mb 42f
7:10 28 34 mph 1008.3mb 43f
6:55 25 32 mph 1008.2mb 44f
6:40 25 32 mph 1008.1mb 44f
6:25 23 32 mph 1007.9mb 44f
6:10 22 33 mph 1007.9mb 44f
5:55 23 33 mph 1007.8mb 44f
5:40 23 30 mph 1007.5mb 45f
5:25 23 30 mph 1007.6mb 44f
5:10 25 31 mph 1007.4mb 44f
4:55 29 34 mph 1007.2mb 44f
4:40 22 28 mph 1007.1mb 45f
4:25 25 31 mph 1007mb 44f
4:10 25 34 mph 1007mb 44f
3:55 20 24 mph 1007mb 45f
3:40 24 29 mph 1006.7mb 44f
3:25 22 31 mph 1006.6mb 44f
3:10 26 30 mph 1006.5mb 45f
2:55 26 32 mph 1006.4mb 45f
2:40 26 32 mph 1006.1mb 45f
2:25 24 31 mph 1006.4mb 44f
2:10 18 28 mph 1006.7mb 45f
1:55 25 31 mph 1006.5mb 44f
1:40 22 32 mph 1006.7mb 45f
1:25 20 32 mph 1006.8mb 46f
1:10 23 29 mph 1006.6mb 45f
12:55 24 30 mph 1006.7mb 45f
12:40 25 32 mph 1006.7mb 45f
12:25 18 28 mph 1007mb 45f
12:10 18 25 mph 1007mb 44f
11:55 17 23 mph 1007mb 43f
11:40 22 28 mph 1007.1mb 44f
11:25 20 31 mph 1007.2mb 44f
11:10 17 23 mph 1007.3mb 44f
10:55 16 25 mph 1007.4mb 43f
10:40 18 26 mph 1007.5mb 43f
10:25 22 32 mph 1007.6mb 42f
10:10 25 33 mph 1007.5mb 42f
9:55 20 26 mph 1007.7mb 42f
9:40 22 26 mph 1007.8mb 42f
9:25 21 26 mph 1007.9mb 41f
9:10 22 25 mph 1007.9mb 41f
8:55 23 25 mph 1007.8mb 41f
8:40 23 29 mph 1007.8mb 40f
8:25 18 25 mph 1007.9mb 41f
8:10 17 26 mph 1008mb 40f
7:55 24 32 mph 1007.9mb 40f
7:40 20 28 mph 1007.9mb 40f
7:25 20 30 mph 1007.9mb 39f
7:10 15 22 mph 1008.1mb 39f
6:55 14 20 mph 1008mb 39f
6:40 14 20 mph 1008mb 39f
6:25 13 15 mph 1008mb 38f
6:10 14 18 mph 1007.6mb 38f
5:55 14 21 mph 1007.5mb 38f
5:40 15 21 mph 1007.4mb 39f
5:25 17 23 mph 1007mb 39f
5:10 22 28 mph 1006.8mb 39f
4:55 20 25 mph 1006.8mb 39f
4:40 18 24 mph 1006.9mb 39f
4:25 18 24 mph 1006.9mb 39f
4:10 21 25 mph 1006.9mb 39f
3:55 16 24 mph 1007mb 40f
3:40 23 29 mph 1006.8mb 40f
3:25 17 23 mph 1007mb 40f
3:10 21 28 mph 1006.9mb 40f
2:55 18 30 mph 1006.9mb 40f
2:40 22 29 mph 1006.8mb 40f
2:25 21 25 mph 1006.8mb 40f
2:10 25 33 mph 1006.5mb 40f
1:55 15 20 mph 1006.8mb 40f
1:40 21 28 mph 1006.7mb 40f
1:25 20 24 mph 1006.9mb 40f
1:10 23 32 mph 1006.7mb 40f
jeu. 04/23 7:55 13 16 mph 1005.6mb 41f
7:40 13 16 mph 1005.4mb 41f
7:25 13 16 mph 1005.4mb 41f
7:10 21 25 mph 1005.1mb 41f
6:55 25 34 mph 1005mb 42f
6:40 28 36 mph 1004.3mb 45f
6:25 16 21 mph 1004.2mb 45f
6:10 28 32 mph 1003.1mb 44f
5:55 30 34 mph 1002.9mb 44f
5:40 28 34 mph 1002.9mb 45f
5:25 26 31 mph 1002.9mb 45f
5:10 24 29 mph 1002.9mb 44f
4:55 23 25 mph 1003.2mb 44f
4:40 26 31 mph 1003mb 44f
4:25 26 30 mph 1003mb 44f
4:10 26 30 mph 1002.9mb 44f
3:55 26 32 mph 1002.9mb 44f
3:40 24 31 mph 1002.9mb 44f
3:25 17 26 mph 1003.1mb 48f
3:10 15 21 mph 1003.2mb 48f
2:55 22 26 mph 1003mb 47f
2:40 15 22 mph 1003.3mb 47f
2:25 15 20 mph 1003.4mb 47f
2:10 17 21 mph 1003.6mb 47f
1:55 16 20 mph 1003.7mb 47f
1:40 13 18 mph 1003.8mb 46f
1:25 15 22 mph 1003.8mb 46f
1:10 15 24 mph 1003.7mb 45f
12:55 20 23 mph 1003.7mb 45f
12:40 20 25 mph 1003.8mb 45f
12:25 20 25 mph 1003.8mb 45f
12:10 17 21 mph 1004.1mb 45f
11:55 17 23 mph 1004.2mb 45f
11:40 21 26 mph 1004mb 45f
11:25 16 21 mph 1004.1mb 45f
11:10 15 20 mph 1004.1mb 44f
10:55 15 21 mph 1004.1mb 44f
10:40 14 20 mph 1004.2mb 44f
10:25 16 22 mph 1004.1mb 44f
10:10 15 20 mph 1004.2mb 44f
9:55 15 18 mph 1004.2mb 44f
9:40 14 16 mph 1004.2mb 44f
9:25 17 21 mph 1004.1mb 43f
9:10 16 21 mph 1004.2mb 43f
8:55 14 20 mph 1004.4mb 43f
8:40 16 21 mph 1004.2mb 43f
8:25 17 22 mph 1004.3mb 43f
8:10 20 24 mph 1004.1mb 42f
7:55 17 25 mph 1004.2mb 41f
7:40 18 24 mph 1004.2mb 42f
7:25 17 22 mph 1004.2mb 42f
7:10 18 22 mph 1004.1mb 42f
6:55 20 23 mph 1004mb 42f
6:40 16 20 mph 1003.9mb 42f
6:25 16 18 mph 1003.7mb 42f
6:10 15 17 mph 1003.5mb 43f
5:55 15 17 mph 1003.1mb 43f
5:40 14 17 mph 1002.9mb 43f
5:25 10 13 mph 1002.6mb 44f
5:10 7 8 mph 1002.5mb 44f
4:55 7 8 mph 1002.5mb 44f
4:40 5 7 mph 1002.6mb 44f
4:25 6 8 mph 1002.7mb 44f
4:10 8 10 mph 1002.7mb 44f
3:55 11 14 mph 1002.5mb 45f
3:40 9 14 mph 1002.8mb 45f
3:25 8 10 mph 1003mb 45f
3:10 7 9 mph 1002.8mb 45f
2:55 7 8 mph 1003.1mb 45f
2:40 10 13 mph 1002.9mb 45f
2:25 8 10 mph 1002.5mb 46f
2:10 9 11 mph 1002.1mb 46f
1:55 10 14 mph 1002.4mb 47f
1:40 11 16 mph 1002.4mb 47f
1:25 10 13 mph 1001.8mb 48f
1:10 9 13 mph 1002.3mb 48f
mer. 04/22 7:55 14 17 mph 1002.5mb 50f
7:40 21 23 mph 1002.7mb 50f
7:25 26 29 mph 1002.9mb 50f
7:10 20 24 mph 1002.9mb 49f
6:55 15 16 mph 1002.4mb 50f
6:40 20 21 mph 1002.5mb 50f
6:25 25 30 mph 1002.6mb 51f
6:10 29 32 mph 1002.7mb 53f
5:55 31 34 mph 1002.9mb 54f
5:40 25 32 mph 1003mb 53f
5:25 16 18 mph 1002.5mb 50f
5:10 18 21 mph 1002.6mb 50f
4:55 21 22 mph 1002.6mb 50f
4:40 21 22 mph 1002.4mb 50f
4:25 20 22 mph 1002.5mb 50f
4:10 16 18 mph 1002.2mb 50f